createdAt,value
2018-05-15T00:00:59.951Z,9.63
2018-05-15T00:03:25.834Z,10.90
2018-05-15T00:05:52.785Z,9.00
2018-05-15T00:08:18.740Z,11.93
2018-05-15T00:10:44.795Z,9.50
2018-05-15T00:13:10.784Z,13.07
2018-05-15T00:15:36.655Z,10.13
2018-05-15T00:18:02.535Z,10.20
2018-05-15T00:20:28.641Z,9.97
2018-05-15T00:22:54.529Z,9.90
2018-05-15T00:25:20.568Z,9.93
2018-05-15T00:27:46.571Z,10.03
2018-05-15T00:30:12.460Z,10.90
2018-05-15T00:32:38.533Z,10.20
2018-05-15T00:35:04.859Z,10.10
2018-05-15T00:37:30.731Z,10.17
2018-05-15T00:39:56.615Z,10.07
2018-05-15T00:42:22.675Z,10.83
2018-05-15T00:44:48.716Z,10.13
2018-05-15T00:47:14.657Z,9.90
2018-05-15T00:49:40.575Z,10.00
2018-05-15T00:52:06.503Z,9.47
2018-05-15T00:54:32.383Z,9.90
2018-05-15T00:56:58.515Z,10.03
2018-05-15T00:59:24.471Z,11.00
2018-05-15T01:01:50.352Z,10.13
2018-05-15T01:04:16.283Z,10.10
2018-05-15T01:06:42.163Z,9.90
2018-05-15T01:09:08.199Z,9.70
2018-05-15T01:11:34.140Z,9.97
2018-05-15T01:14:00.190Z,12.17
2018-05-15T01:16:26.116Z,9.67
2018-05-15T01:18:52.039Z,10.10
2018-05-15T01:21:18.112Z,11.50
2018-05-15T01:23:44.001Z,8.87
2018-05-15T01:26:09.928Z,9.87
2018-05-15T01:28:35.832Z,10.73
2018-05-15T01:31:01.722Z,10.60
2018-05-15T01:33:27.826Z,11.83
2018-05-15T01:35:53.716Z,10.00
2018-05-15T01:38:19.662Z,10.13
2018-05-15T01:40:45.583Z,10.03
2018-05-15T01:43:11.467Z,10.90
2018-05-15T01:45:37.503Z,10.33
2018-05-15T01:48:03.508Z,10.47
2018-05-15T01:50:29.479Z,10.53
2018-05-15T01:52:55.373Z,10.50
2018-05-15T01:55:21.307Z,10.73
2018-05-15T01:57:47.364Z,10.80
2018-05-15T02:00:13.272Z,10.20
2018-05-15T02:02:39.223Z,11.13
2018-05-15T02:05:05.110Z,10.37
2018-05-15T02:07:30.988Z,10.33
2018-05-15T02:09:57.064Z,10.77
2018-05-15T02:12:22.956Z,10.63
2018-05-15T02:14:48.883Z,11.70
2018-05-15T02:17:18.575Z,10.33
2018-05-15T02:19:44.472Z,11.77
2018-05-15T02:22:11.084Z,12.00
2018-05-15T02:24:37.023Z,10.80
2018-05-15T02:27:03.000Z,11.73
2018-05-15T02:29:28.897Z,10.47
2018-05-15T02:31:54.839Z,11.93
2018-05-15T02:34:20.873Z,12.03
2018-05-15T02:36:46.759Z,11.73
2018-05-15T02:39:12.684Z,9.70
2018-05-15T02:41:38.635Z,10.63
2018-05-15T02:44:04.526Z,11.30
2018-05-15T02:46:30.604Z,11.53
2018-05-15T02:48:56.496Z,11.17
2018-05-15T02:51:22.458Z,11.27
2018-05-15T02:53:48.423Z,11.00
2018-05-15T02:56:15.393Z,11.63
2018-05-15T02:58:41.432Z,11.17
2018-05-15T03:01:07.470Z,11.40
2018-05-15T03:03:33.329Z,11.63
2018-05-15T03:05:59.196Z,11.90
2018-05-15T03:08:25.112Z,11.60
2018-05-15T03:10:52.154Z,11.70
2018-05-15T03:13:18.034Z,12.17
2018-05-15T03:15:45.357Z,12.33
2018-05-15T03:18:11.309Z,11.67
2018-05-15T03:20:37.257Z,14.50
2018-05-15T03:23:03.184Z,12.00
2018-05-15T03:25:29.282Z,12.00
2018-05-15T03:27:55.273Z,11.73
2018-05-15T03:30:21.188Z,13.00
2018-05-15T03:32:47.064Z,13.40
2018-05-15T03:35:12.956Z,12.87
2018-05-15T03:37:38.930Z,13.03
2018-05-15T03:40:04.840Z,12.77
2018-05-15T03:42:30.726Z,12.87
2018-05-15T03:44:56.659Z,12.53
2018-05-15T03:47:22.600Z,13.33
2018-05-15T03:49:48.501Z,13.13
2018-05-15T03:52:14.424Z,12.33
2018-05-15T03:54:40.381Z,13.00
2018-05-15T03:57:06.272Z,13.67
2018-05-15T03:59:32.187Z,13.27
2018-05-15T04:02:10.251Z,12.97
2018-05-15T04:04:48.355Z,13.33
2018-05-15T04:07:26.624Z,15.10
2018-05-15T04:09:52.561Z,12.70
2018-05-15T04:12:18.504Z,14.20
2018-05-15T04:14:44.452Z,13.80
2018-05-15T04:17:10.383Z,13.53
2018-05-15T04:19:36.263Z,13.13
2018-05-15T04:22:02.153Z,13.97
2018-05-15T04:24:28.072Z,15.17
2018-05-15T04:26:53.933Z,12.33
2018-05-15T04:29:19.870Z,13.47
2018-05-15T04:31:46.547Z,11.83
2018-05-15T04:34:12.478Z,12.73
2018-05-15T04:36:38.359Z,17.50
2018-05-15T04:39:04.309Z,14.37
2018-05-15T04:41:30.259Z,13.07
2018-05-15T04:43:56.191Z,14.27
2018-05-15T04:46:22.219Z,12.23
2018-05-15T04:48:48.088Z,11.20
2018-05-15T04:51:14.032Z,11.40
2018-05-15T04:53:39.955Z,12.27
2018-05-15T04:56:05.835Z,12.07
2018-05-15T04:58:31.724Z,11.17
2018-05-15T05:00:58.669Z,11.10
2018-05-15T05:03:24.539Z,12.10
2018-05-15T05:05:50.415Z,12.47
2018-05-15T05:08:16.360Z,12.23
2018-05-15T05:10:44.303Z,10.73
2018-05-15T05:13:10.221Z,11.50
2018-05-15T05:15:36.155Z,11.43
2018-05-15T05:18:02.147Z,10.20
2018-05-15T05:20:27.960Z,11.30
2018-05-15T05:22:53.878Z,12.67
2018-05-15T05:25:19.790Z,10.90
2018-05-15T05:27:45.691Z,13.40
2018-05-15T05:30:11.644Z,11.93
2018-05-15T05:32:38.065Z,11.80
2018-05-15T05:35:03.947Z,11.30
2018-05-15T05:37:29.875Z,11.43
2018-05-15T05:39:55.748Z,15.30
2018-05-15T05:42:21.639Z,12.57
2018-05-15T05:44:47.552Z,14.53
2018-05-15T05:47:14.526Z,12.33
2018-05-15T05:49:40.415Z,12.00
2018-05-15T05:52:06.363Z,13.37
2018-05-15T05:54:32.259Z,16.07
2018-05-15T05:56:58.118Z,13.57
2018-05-15T05:59:24.056Z,13.80
2018-05-15T06:01:49.947Z,10.67
2018-05-15T06:04:15.843Z,11.33
2018-05-15T06:06:41.782Z,15.57
2018-05-15T06:09:07.675Z,14.80
2018-05-15T06:11:33.548Z,10.73
2018-05-15T06:13:59.531Z,14.73
2018-05-15T06:16:25.396Z,14.67
2018-05-15T06:18:51.278Z,11.93
2018-05-15T06:21:17.195Z,11.23
2018-05-15T06:23:43.078Z,12.13
2018-05-15T06:26:08.954Z,11.47
2018-05-15T06:28:34.872Z,11.53
2018-05-15T06:31:00.783Z,11.90
2018-05-15T06:33:26.663Z,12.70
2018-05-15T06:35:52.583Z,14.57
2018-05-15T06:38:18.484Z,14.43
2018-05-15T06:40:44.358Z,11.07
2018-05-15T06:43:10.312Z,13.60
2018-05-15T06:45:36.198Z,15.27
2018-05-15T06:48:02.101Z,13.80
2018-05-15T06:50:28.033Z,14.00
2018-05-15T06:52:53.933Z,10.63
2018-05-15T06:55:19.849Z,14.53
2018-05-15T06:57:45.801Z,11.83
2018-05-15T07:00:11.688Z,13.90
2018-05-15T07:02:37.755Z,10.83
2018-05-15T07:05:03.690Z,10.20
2018-05-15T07:07:29.582Z,11.97
2018-05-15T07:09:55.452Z,15.47
2018-05-15T07:12:22.287Z,10.37
2018-05-15T07:14:48.237Z,13.47
2018-05-15T07:17:14.168Z,9.30
2018-05-15T07:19:40.105Z,10.77
2018-05-15T07:22:05.968Z,9.90
2018-05-15T07:24:31.860Z,13.20
2018-05-15T07:26:57.788Z,13.47
2018-05-15T07:29:23.789Z,9.77
2018-05-15T07:31:49.681Z,14.97
2018-05-15T07:34:15.795Z,11.23
2018-05-15T07:36:41.683Z,11.00
2018-05-15T07:39:07.543Z,12.27
2018-05-15T07:41:33.477Z,11.13
2018-05-15T07:43:59.359Z,8.40
2018-05-15T07:46:25.264Z,11.17
2018-05-15T07:48:51.185Z,10.60
2018-05-15T07:51:17.055Z,8.90
2018-05-15T07:53:42.951Z,11.03
2018-05-15T07:56:08.881Z,9.83
2018-05-15T07:58:34.883Z,9.13
2018-05-15T08:01:00.762Z,10.13
2018-05-15T08:03:26.709Z,10.20
2018-05-15T08:05:52.579Z,8.73
2018-05-15T08:08:18.464Z,11.07
2018-05-15T08:10:44.464Z,13.53
2018-05-15T08:13:10.355Z,9.23
2018-05-15T08:15:36.312Z,9.67
2018-05-15T08:18:05.387Z,13.87
2018-05-15T08:20:31.262Z,10.57
2018-05-15T08:22:57.224Z,9.80
2018-05-15T08:25:23.139Z,9.17
2018-05-15T08:27:49.142Z,8.50
2018-05-15T08:30:15.017Z,9.00
2018-05-15T08:32:40.954Z,9.80
2018-05-15T08:35:06.918Z,10.53
2018-05-15T08:37:32.873Z,8.87
2018-05-15T08:39:58.740Z,8.73
2018-05-15T08:42:24.669Z,7.73
2018-05-15T08:44:50.536Z,9.57
2018-05-15T08:47:16.544Z,9.37
2018-05-15T08:49:42.405Z,9.63
2018-05-15T08:52:08.329Z,10.20
2018-05-15T08:54:34.252Z,9.10
2018-05-15T08:57:00.159Z,11.43
2018-05-15T08:59:26.967Z,11.17
2018-05-15T09:01:53.256Z,9.67
2018-05-15T09:04:19.117Z,6.47
2018-05-15T09:06:44.998Z,10.47
2018-05-15T09:09:10.968Z,8.53
2018-05-15T09:11:36.931Z,8.57
2018-05-15T09:14:02.889Z,9.80
2018-05-15T09:16:28.815Z,10.20
2018-05-15T09:18:54.692Z,10.87
2018-05-15T09:21:20.596Z,8.30
2018-05-15T09:23:46.599Z,10.93
2018-05-15T09:26:12.516Z,11.37
2018-05-15T09:28:38.387Z,8.50
2018-05-15T09:31:04.315Z,6.90
2018-05-15T09:33:30.256Z,9.23
2018-05-15T09:35:56.220Z,11.27
2018-05-15T09:38:22.163Z,8.93
2018-05-15T09:40:48.064Z,10.23
2018-05-15T09:43:21.992Z,6.50
2018-05-15T09:45:47.924Z,6.63
2018-05-15T09:48:13.919Z,10.10
2018-05-15T09:50:39.839Z,6.70
2018-05-15T09:53:05.778Z,5.60
2018-05-15T09:55:31.643Z,7.17
2018-05-15T09:57:57.574Z,9.57
2018-05-15T10:00:29.673Z,7.40
2018-05-15T10:02:55.547Z,6.53
2018-05-15T10:05:21.566Z,8.37
2018-05-15T10:07:47.502Z,9.27
2018-05-15T10:10:13.402Z,8.00
2018-05-15T10:12:39.439Z,7.47
2018-05-15T10:15:05.316Z,5.47
2018-05-15T10:17:31.204Z,7.17
2018-05-15T10:19:57.138Z,6.70
2018-05-15T10:22:23.020Z,5.83
2018-05-15T10:24:48.992Z,9.03
2018-05-15T10:27:14.957Z,7.20
2018-05-15T10:29:40.839Z,4.93
2018-05-15T10:32:06.725Z,9.27
2018-05-15T10:34:32.952Z,7.87
2018-05-15T10:36:58.923Z,7.90
2018-05-15T10:39:24.792Z,7.33
2018-05-15T10:41:50.764Z,6.30
2018-05-15T10:44:16.666Z,6.17
2018-05-15T10:47:08.839Z,7.77
2018-05-15T10:49:34.788Z,8.37
2018-05-15T10:52:00.672Z,7.80
2018-05-15T10:54:26.595Z,6.57
2018-05-15T10:56:52.472Z,5.83
2018-05-15T10:59:18.365Z,7.07
2018-05-15T11:01:44.374Z,6.60
2018-05-15T11:04:12.303Z,5.30
2018-05-15T11:06:38.880Z,8.00
2018-05-15T11:09:04.804Z,8.50
2018-05-15T11:11:30.668Z,7.77
2018-05-15T11:13:56.636Z,8.13
2018-05-15T11:16:22.615Z,7.53
2018-05-15T11:18:48.515Z,9.40
2018-05-15T11:21:26.757Z,6.70
2018-05-15T11:27:00.759Z,5.47
2018-05-15T11:29:26.641Z,7.13
2018-05-15T11:31:56.417Z,6.67
2018-05-15T11:34:22.456Z,9.80
2018-05-15T11:36:48.465Z,5.50
2018-05-15T11:39:14.276Z,7.63
2018-05-15T11:41:40.299Z,9.53
2018-05-15T11:44:06.102Z,10.40
2018-05-15T11:46:32.087Z,8.43
2018-05-15T11:48:58.635Z,6.10
2018-05-15T11:51:24.598Z,8.73
2018-05-15T11:53:49.870Z,6.63
2018-05-15T11:56:15.819Z,6.40
2018-05-15T11:58:41.799Z,8.37
2018-05-15T12:01:07.707Z,8.10
2018-05-15T12:03:33.675Z,7.70
2018-05-15T12:06:00.672Z,6.27
2018-05-15T12:08:26.568Z,7.13
2018-05-15T12:10:52.596Z,21.90
2018-05-15T12:13:18.462Z,5.77
2018-05-15T12:15:44.398Z,6.47
2018-05-15T12:18:10.344Z,6.70
2018-05-15T12:20:36.217Z,9.37
2018-05-15T12:23:02.199Z,7.20
2018-05-15T12:25:28.172Z,9.13
2018-05-15T12:27:54.105Z,7.07
2018-05-15T12:30:19.976Z,6.07
2018-05-15T12:32:45.899Z,7.33
2018-05-15T12:35:11.928Z,5.60
2018-05-15T12:37:37.809Z,5.63
2018-05-15T12:40:03.791Z,9.23
2018-05-15T12:42:29.683Z,9.60
2018-05-15T12:44:55.580Z,8.33
2018-05-15T12:47:21.580Z,7.70
2018-05-15T12:49:47.615Z,7.20
2018-05-15T12:52:13.561Z,6.17
2018-05-15T12:54:39.517Z,6.97
2018-05-15T12:57:05.429Z,8.60
2018-05-15T12:59:36.166Z,7.50
2018-05-15T13:02:02.095Z,7.03
2018-05-15T13:04:28.049Z,6.50
2018-05-15T13:06:53.927Z,8.63
2018-05-15T13:09:19.860Z,10.17
2018-05-15T13:11:45.824Z,9.40
2018-05-15T13:14:11.745Z,7.93
2018-05-15T13:16:37.807Z,7.43
2018-05-15T13:19:03.688Z,6.30
2018-05-15T13:21:29.571Z,5.40
2018-05-15T13:23:55.593Z,6.97
2018-05-15T13:26:21.525Z,9.20
2018-05-15T13:28:47.435Z,12.77
2018-05-15T13:31:13.365Z,5.47
2018-05-15T13:33:39.297Z,5.90
2018-05-15T13:36:05.260Z,6.60
2018-05-15T13:38:31.219Z,4.50
2018-05-15T13:40:57.236Z,3.73
2018-05-15T13:43:23.047Z,3.83
2018-05-15T13:45:48.964Z,3.67
2018-05-15T13:48:14.916Z,5.17
2018-05-15T13:50:40.800Z,4.17
2018-05-15T13:53:06.833Z,5.50
2018-05-15T13:55:32.720Z,6.27
2018-05-15T13:57:58.607Z,5.00
2018-05-15T14:00:25.643Z,6.47
2018-05-15T14:02:51.580Z,5.27
2018-05-15T14:05:17.519Z,7.37
2018-05-15T14:07:43.448Z,6.50
2018-05-15T14:10:09.365Z,5.27
2018-05-15T14:12:35.365Z,5.83
2018-05-15T14:15:01.286Z,5.30
2018-05-15T14:17:27.242Z,5.40
2018-05-15T14:19:53.124Z,6.63
2018-05-15T14:22:19.063Z,7.73
2018-05-15T14:24:45.036Z,8.70
2018-05-15T14:27:10.938Z,7.77
2018-05-15T14:29:36.918Z,11.50
2018-05-15T14:32:06.729Z,12.33
2018-05-15T14:34:32.610Z,6.43
2018-05-15T14:36:58.832Z,5.70
2018-05-15T14:39:24.731Z,4.60
2018-05-15T14:42:02.958Z,9.27
2018-05-15T14:44:28.828Z,9.27
2018-05-15T14:46:54.723Z,11.17
2018-05-15T14:49:20.764Z,10.67
2018-05-15T14:51:47.714Z,7.60
2018-05-15T14:54:13.652Z,6.67
2018-05-15T14:56:39.660Z,8.43
2018-05-15T14:59:05.582Z,7.03
2018-05-15T15:01:31.522Z,6.60
2018-05-15T15:03:57.472Z,13.03
2018-05-15T15:06:23.395Z,5.40
2018-05-15T15:08:49.280Z,5.90
2018-05-15T15:11:15.207Z,4.90
2018-05-15T15:13:41.115Z,4.50
2018-05-15T15:16:07.000Z,5.87
2018-05-15T15:18:32.923Z,5.90
2018-05-15T15:20:58.835Z,6.10
2018-05-15T15:23:30.299Z,4.37
2018-05-15T15:25:56.219Z,5.93
2018-05-15T15:28:22.176Z,3.87
2018-05-15T15:30:48.048Z,4.37
2018-05-15T15:33:13.976Z,4.37
2018-05-15T15:35:39.888Z,4.07
2018-05-15T15:38:05.775Z,7.10
2018-05-15T15:40:31.887Z,4.50
2018-05-15T15:42:57.772Z,5.63
2018-05-15T15:45:23.747Z,6.60
2018-05-15T15:47:49.698Z,6.77
2018-05-15T15:50:15.614Z,5.53
2018-05-15T15:52:41.503Z,6.40
2018-05-15T15:55:07.465Z,6.77
2018-05-15T15:57:35.482Z,5.03
2018-05-15T16:00:01.426Z,6.70
2018-05-15T16:02:27.363Z,6.57
2018-05-15T16:04:53.247Z,6.80
2018-05-15T16:07:19.133Z,7.23
2018-05-15T16:09:46.530Z,5.33
2018-05-15T16:12:12.450Z,5.40
2018-05-15T16:14:38.383Z,6.67
2018-05-15T16:17:04.312Z,7.60
2018-05-15T16:19:30.203Z,8.80
2018-05-15T16:21:56.100Z,7.10
2018-05-15T16:24:22.020Z,8.13
2018-05-15T16:26:52.211Z,6.43
2018-05-15T16:29:18.084Z,7.37
2018-05-15T16:31:44.009Z,6.97
2018-05-15T16:34:09.900Z,6.07
2018-05-15T16:36:35.795Z,7.17
2018-05-15T16:39:01.724Z,7.13
2018-05-15T16:41:27.608Z,8.77
2018-05-15T16:43:53.548Z,6.10
2018-05-15T16:46:24.771Z,7.87
2018-05-15T16:48:50.630Z,8.30
2018-05-15T16:51:16.516Z,6.03
2018-05-15T16:53:42.440Z,8.03
2018-05-15T16:56:08.329Z,6.97
2018-05-15T16:58:35.361Z,7.03
2018-05-15T17:01:01.288Z,9.37
2018-05-15T17:03:29.192Z,8.13
2018-05-15T17:05:55.111Z,7.33
2018-05-15T17:08:23.165Z,9.10
2018-05-15T17:10:49.155Z,7.33
2018-05-15T17:13:15.079Z,7.13
2018-05-15T17:15:41.188Z,7.20
2018-05-15T17:18:07.082Z,7.13
2018-05-15T17:20:33.019Z,7.97
2018-05-15T17:22:58.947Z,7.90
2018-05-15T17:25:24.918Z,6.67
2018-05-15T17:27:51.820Z,7.90
2018-05-15T17:30:17.758Z,7.60
2018-05-15T17:32:43.657Z,6.17
2018-05-15T17:35:09.529Z,7.53
2018-05-15T17:37:35.569Z,8.53
2018-05-15T17:40:01.456Z,7.13
2018-05-15T17:42:35.000Z,8.43
2018-05-15T17:45:00.921Z,8.10
2018-05-15T17:47:26.953Z,8.97
2018-05-15T17:49:52.832Z,9.03
2018-05-15T17:52:18.723Z,8.50
2018-05-15T17:54:44.611Z,7.57
2018-05-15T17:57:10.556Z,8.90
2018-05-15T17:59:36.542Z,8.23
2018-05-15T18:02:02.445Z,8.23
2018-05-15T18:04:28.416Z,8.03
2018-05-15T18:06:54.307Z,8.17
2018-05-15T18:09:20.189Z,10.07
2018-05-15T18:11:46.193Z,8.43
2018-05-15T18:14:12.053Z,7.57
2018-05-15T18:16:37.923Z,8.27
2018-05-15T18:19:03.835Z,7.30
2018-05-15T18:21:29.713Z,7.77
2018-05-15T18:23:55.704Z,10.87
2018-05-15T18:26:21.628Z,9.07
2018-05-15T18:28:47.565Z,8.90
2018-05-15T18:31:14.153Z,7.80
2018-05-15T18:33:40.244Z,8.83
2018-05-15T18:36:06.235Z,8.70
2018-05-15T18:38:32.147Z,8.33
2018-05-15T18:40:58.328Z,8.27
2018-05-15T18:43:24.291Z,7.80
2018-05-15T18:45:50.169Z,10.07
2018-05-15T18:48:16.188Z,9.07
2018-05-15T18:50:42.089Z,8.80
2018-05-15T18:53:08.258Z,8.27
2018-05-15T18:55:34.208Z,9.60
2018-05-15T18:58:00.153Z,9.03
2018-05-15T19:00:26.083Z,8.93
2018-05-15T19:02:51.993Z,8.73
2018-05-15T19:05:18.260Z,8.83
2018-05-15T19:07:44.970Z,8.37
2018-05-15T19:10:10.907Z,9.70
2018-05-15T19:12:36.899Z,10.47
2018-05-15T19:15:02.805Z,11.50
2018-05-15T19:17:29.286Z,11.47
2018-05-15T19:19:55.223Z,10.47
2018-05-15T19:22:21.154Z,11.27
2018-05-15T19:24:47.554Z,10.03
2018-05-15T19:27:13.477Z,8.97
2018-05-15T19:29:39.317Z,10.10
2018-05-15T19:32:11.397Z,11.10
2018-05-15T19:34:37.307Z,9.27
2018-05-15T19:37:10.165Z,10.83
2018-05-15T19:39:42.245Z,9.63
2018-05-15T19:42:08.095Z,10.43
2018-05-15T19:44:33.991Z,9.03
2018-05-15T19:46:59.916Z,12.83
2018-05-15T19:49:25.863Z,11.80
2018-05-15T19:51:51.744Z,12.47
2018-05-15T19:54:17.758Z,12.70
2018-05-15T19:56:43.583Z,15.10
2018-05-15T19:59:09.457Z,12.37
2018-05-15T20:01:35.472Z,12.60
2018-05-15T20:04:01.351Z,12.97
2018-05-15T20:06:27.202Z,14.73
2018-05-15T20:08:53.129Z,11.23
2018-05-15T20:11:19.017Z,12.50
2018-05-15T20:13:44.972Z,13.77
2018-05-15T20:16:10.923Z,11.00
2018-05-15T20:18:36.802Z,11.40
2018-05-15T20:21:02.684Z,10.60
2018-05-15T20:23:28.602Z,11.40
2018-05-15T20:25:54.560Z,11.67
2018-05-15T20:28:20.419Z,11.37
2018-05-15T20:30:46.343Z,11.27
2018-05-15T20:33:12.204Z,11.77
2018-05-15T20:35:38.075Z,11.53
2018-05-15T20:38:04.102Z,10.10
2018-05-15T20:40:29.984Z,12.23
2018-05-15T20:42:55.851Z,11.97
2018-05-15T20:45:21.801Z,12.67
2018-05-15T20:47:47.657Z,13.07
2018-05-15T20:50:13.628Z,11.23
2018-05-15T20:52:39.533Z,12.20
2018-05-15T20:55:05.407Z,12.33
2018-05-15T20:57:31.288Z,13.13
2018-05-15T20:59:57.195Z,14.07
2018-05-15T21:02:23.148Z,14.70
2018-05-15T21:04:49.014Z,13.63
2018-05-15T21:07:14.936Z,16.67
2018-05-15T21:09:40.806Z,17.83
2018-05-15T21:12:06.666Z,16.47
2018-05-15T21:14:32.683Z,15.83
2018-05-15T21:16:58.562Z,16.63
2018-05-15T21:19:24.437Z,16.87
2018-05-15T21:21:50.850Z,18.00
2018-05-15T21:24:16.760Z,20.13
2018-05-15T21:26:42.739Z,16.27
2018-05-15T21:29:08.654Z,17.63
2018-05-15T21:31:34.533Z,16.97
2018-05-15T21:34:00.391Z,16.43
2018-05-15T21:36:26.303Z,18.10
2018-05-15T21:38:52.276Z,19.97
2018-05-15T21:41:18.147Z,20.60
2018-05-15T21:43:44.465Z,18.87
2018-05-15T21:46:10.333Z,19.33
2018-05-15T21:48:36.208Z,21.27
2018-05-15T21:51:02.252Z,17.43
2018-05-15T21:53:28.128Z,19.13
2018-05-15T21:55:54.044Z,20.53
2018-05-15T21:58:19.955Z,21.20
2018-05-15T22:00:45.852Z,22.90
2018-05-15T22:03:11.807Z,20.63
2018-05-15T22:05:37.793Z,23.07
2018-05-15T22:08:03.682Z,20.73
2018-05-15T22:10:29.569Z,21.33
2018-05-15T22:13:07.943Z,20.97
2018-05-15T22:15:47.270Z,21.53
2018-05-15T22:18:25.423Z,19.87
2018-05-15T22:21:03.711Z,22.33
2018-05-15T22:23:29.485Z,20.60
2018-05-15T22:25:55.522Z,17.50
2018-05-15T22:28:21.411Z,20.07
2018-05-15T22:30:47.328Z,20.33
2018-05-15T22:33:13.215Z,19.60
2018-05-15T22:35:39.104Z,18.20
2018-05-15T22:38:05.192Z,19.37
2018-05-15T22:40:31.077Z,22.60
2018-05-15T22:42:56.960Z,18.03
2018-05-15T22:45:22.892Z,16.43
2018-05-15T22:47:48.811Z,20.53
2018-05-15T22:50:14.828Z,19.00
2018-05-15T22:52:40.753Z,18.13
2018-05-15T22:55:06.615Z,19.10
2018-05-15T22:57:32.468Z,16.37
2018-05-15T22:59:58.384Z,17.13
2018-05-15T23:02:24.391Z,17.30
2018-05-15T23:04:50.268Z,18.87
2018-05-15T23:07:16.209Z,19.40
2018-05-15T23:09:42.074Z,19.60
2018-05-15T23:12:07.955Z,17.37
2018-05-15T23:14:34.024Z,16.60
2018-05-15T23:16:59.899Z,19.10
2018-05-15T23:19:25.779Z,16.07
2018-05-15T23:21:51.708Z,16.47
2018-05-15T23:24:17.571Z,20.43
2018-05-15T23:26:43.584Z,20.23
2018-05-15T23:29:09.509Z,22.07
2018-05-15T23:31:35.419Z,21.77
2018-05-15T23:34:01.296Z,22.17
2018-05-15T23:36:27.204Z,23.70
2018-05-15T23:38:53.222Z,19.77
2018-05-15T23:41:19.092Z,18.70
2018-05-15T23:43:46.072Z,18.80
2018-05-15T23:46:11.974Z,19.70
2018-05-15T23:48:37.839Z,20.13
2018-05-15T23:51:03.896Z,20.53
2018-05-15T23:53:29.894Z,20.63
2018-05-15T23:55:55.764Z,21.57
2018-05-15T23:58:21.701Z,20.70
